sensor_id;sensor_type;location;lat;lon;timestamp;temperature;humidity
69328;DHT22;56472;52.114;5.492;2023-05-15T00:01:20;23.30;53.40
69328;DHT22;56472;52.114;5.492;2023-05-15T00:03:48;23.30;53.40
69328;DHT22;56472;52.114;5.492;2023-05-15T00:06:15;23.30;53.30
69328;DHT22;56472;52.114;5.492;2023-05-15T00:08:42;23.20;53.20
69328;DHT22;56472;52.114;5.492;2023-05-15T00:11:08;23.20;53.30
69328;DHT22;56472;52.114;5.492;2023-05-15T00:13:35;23.20;53.20
69328;DHT22;56472;52.114;5.492;2023-05-15T00:16:06;23.20;53.20
69328;DHT22;56472;52.114;5.492;2023-05-15T00:18:33;23.20;53.10
69328;DHT22;56472;52.114;5.492;2023-05-15T00:21:00;23.20;53.10
69328;DHT22;56472;52.114;5.492;2023-05-15T00:23:27;23.20;53.10
69328;DHT22;56472;52.114;5.492;2023-05-15T00:25:54;23.20;53.00
69328;DHT22;56472;52.114;5.492;2023-05-15T00:28:21;23.20;53.10
69328;DHT22;56472;52.114;5.492;2023-05-15T00:30:48;23.10;53.00
69328;DHT22;56472;52.114;5.492;2023-05-15T00:33:15;23.10;53.00
69328;DHT22;56472;52.114;5.492;2023-05-15T00:35:42;23.10;52.90
69328;DHT22;56472;52.114;5.492;2023-05-15T00:38:09;23.10;52.90
69328;DHT22;56472;52.114;5.492;2023-05-15T00:40:37;23.10;52.90
69328;DHT22;56472;52.114;5.492;2023-05-15T00:43:05;23.10;52.80
69328;DHT22;56472;52.114;5.492;2023-05-15T00:45:33;23.10;52.80
69328;DHT22;56472;52.114;5.492;2023-05-15T00:48:00;23.10;52.80
69328;DHT22;56472;52.114;5.492;2023-05-15T00:50:28;23.10;52.70
69328;DHT22;56472;52.114;5.492;2023-05-15T00:52:56;23.10;52.80
69328;DHT22;56472;52.114;5.492;2023-05-15T00:55:24;23.10;52.70
69328;DHT22;56472;52.114;5.492;2023-05-15T00:57:52;23.00;52.60
69328;DHT22;56472;52.114;5.492;2023-05-15T01:00:20;23.10;52.60
69328;DHT22;56472;52.114;5.492;2023-05-15T01:02:47;23.00;52.50
69328;DHT22;56472;52.114;5.492;2023-05-15T01:05:14;23.00;52.50
69328;DHT22;56472;52.114;5.492;2023-05-15T01:07:51;23.00;52.40
69328;DHT22;56472;52.114;5.492;2023-05-15T01:10:18;23.00;52.30
69328;DHT22;56472;52.114;5.492;2023-05-15T01:12:50;23.00;52.30
69328;DHT22;56472;52.114;5.492;2023-05-15T01:15:18;23.00;52.30
69328;DHT22;56472;52.114;5.492;2023-05-15T01:17:45;23.00;52.30
69328;DHT22;56472;52.114;5.492;2023-05-15T01:20:15;22.90;52.30
69328;DHT22;56472;52.114;5.492;2023-05-15T01:28:38;22.90;52.20
69328;DHT22;56472;52.114;5.492;2023-05-15T01:31:12;22.90;52.20
69328;DHT22;56472;52.114;5.492;2023-05-15T01:33:45;22.90;52.20
69328;DHT22;56472;52.114;5.492;2023-05-15T01:38:49;22.90;52.20
69328;DHT22;56472;52.114;5.492;2023-05-15T01:41:28;22.90;52.10
69328;DHT22;56472;52.114;5.492;2023-05-15T01:44:07;22.80;52.00
69328;DHT22;56472;52.114;5.492;2023-05-15T01:46:38;22.80;51.90
69328;DHT22;56472;52.114;5.492;2023-05-15T01:49:08;22.80;51.90
69328;DHT22;56472;52.114;5.492;2023-05-15T01:51:38;22.80;51.90
69328;DHT22;56472;52.114;5.492;2023-05-15T01:54:06;22.80;51.90
69328;DHT22;56472;52.114;5.492;2023-05-15T01:56:35;22.80;51.90
69328;DHT22;56472;52.114;5.492;2023-05-15T01:59:03;22.80;51.80
69328;DHT22;56472;52.114;5.492;2023-05-15T02:01:31;22.70;51.70
69328;DHT22;56472;52.114;5.492;2023-05-15T02:04:00;22.80;51.80
69328;DHT22;56472;52.114;5.492;2023-05-15T02:06:30;22.70;51.70
69328;DHT22;56472;52.114;5.492;2023-05-15T02:09:00;22.70;51.60
69328;DHT22;56472;52.114;5.492;2023-05-15T02:11:29;22.70;51.60
69328;DHT22;56472;52.114;5.492;2023-05-15T02:13:56;22.70;51.60
69328;DHT22;56472;52.114;5.492;2023-05-15T02:16:24;22.70;51.60
69328;DHT22;56472;52.114;5.492;2023-05-15T02:18:51;22.70;51.60
69328;DHT22;56472;52.114;5.492;2023-05-15T02:21:18;22.70;51.60
69328;DHT22;56472;52.114;5.492;2023-05-15T02:23:45;22.70;51.50
69328;DHT22;56472;52.114;5.492;2023-05-15T02:32:28;22.60;51.50
69328;DHT22;56472;52.114;5.492;2023-05-15T02:35:24;22.60;51.60
69328;DHT22;56472;52.114;5.492;2023-05-15T02:37:54;22.60;51.70
69328;DHT22;56472;52.114;5.492;2023-05-15T02:40:25;22.60;51.80
69328;DHT22;56472;52.114;5.492;2023-05-15T02:42:54;22.60;51.90
69328;DHT22;56472;52.114;5.492;2023-05-15T02:45:21;22.60;52.00
69328;DHT22;56472;52.114;5.492;2023-05-15T02:47:50;22.60;52.00
69328;DHT22;56472;52.114;5.492;2023-05-15T02:50:17;22.60;52.10
69328;DHT22;56472;52.114;5.492;2023-05-15T02:52:45;22.60;52.10
69328;DHT22;56472;52.114;5.492;2023-05-15T02:55:12;22.60;52.10
69328;DHT22;56472;52.114;5.492;2023-05-15T02:57:38;22.60;52.20
69328;DHT22;56472;52.114;5.492;2023-05-15T03:00:06;22.60;52.20
69328;DHT22;56472;52.114;5.492;2023-05-15T03:02:37;22.60;52.30
69328;DHT22;56472;52.114;5.492;2023-05-15T03:05:05;22.60;52.40
69328;DHT22;56472;52.114;5.492;2023-05-15T03:07:32;22.60;52.30
69328;DHT22;56472;52.114;5.492;2023-05-15T03:09:59;22.60;52.40
69328;DHT22;56472;52.114;5.492;2023-05-15T03:12:25;22.50;52.50
69328;DHT22;56472;52.114;5.492;2023-05-15T03:14:52;22.60;52.40
69328;DHT22;56472;52.114;5.492;2023-05-15T03:17:19;22.50;52.40
69328;DHT22;56472;52.114;5.492;2023-05-15T03:19:46;22.50;52.50
69328;DHT22;56472;52.114;5.492;2023-05-15T03:22:13;22.50;52.50
69328;DHT22;56472;52.114;5.492;2023-05-15T03:24:40;22.50;52.50
69328;DHT22;56472;52.114;5.492;2023-05-15T03:27:07;22.50;52.50
69328;DHT22;56472;52.114;5.492;2023-05-15T03:29:34;22.50;52.50
69328;DHT22;56472;52.114;5.492;2023-05-15T03:32:01;22.50;52.60
69328;DHT22;56472;52.114;5.492;2023-05-15T03:34:28;22.50;52.60
69328;DHT22;56472;52.114;5.492;2023-05-15T03:36:55;22.50;52.60
69328;DHT22;56472;52.114;5.492;2023-05-15T03:39:22;22.50;52.60
69328;DHT22;56472;52.114;5.492;2023-05-15T03:41:49;22.50;52.60
69328;DHT22;56472;52.114;5.492;2023-05-15T03:44:16;22.50;52.60
69328;DHT22;56472;52.114;5.492;2023-05-15T03:46:43;22.50;52.70
69328;DHT22;56472;52.114;5.492;2023-05-15T03:49:09;22.50;52.70
69328;DHT22;56472;52.114;5.492;2023-05-15T03:51:36;22.50;52.70
69328;DHT22;56472;52.114;5.492;2023-05-15T03:54:03;22.50;52.70
69328;DHT22;56472;52.114;5.492;2023-05-15T03:56:31;22.50;52.70
69328;DHT22;56472;52.114;5.492;2023-05-15T03:58:58;22.50;52.70
69328;DHT22;56472;52.114;5.492;2023-05-15T04:01:25;22.50;52.70
69328;DHT22;56472;52.114;5.492;2023-05-15T04:03:52;22.50;52.70
69328;DHT22;56472;52.114;5.492;2023-05-15T04:06:19;22.50;52.70
69328;DHT22;56472;52.114;5.492;2023-05-15T04:08:46;22.50;52.70
69328;DHT22;56472;52.114;5.492;2023-05-15T04:11:13;22.50;52.70
69328;DHT22;56472;52.114;5.492;2023-05-15T04:13:40;22.50;52.70
69328;DHT22;56472;52.114;5.492;2023-05-15T04:16:07;22.50;52.70
69328;DHT22;56472;52.114;5.492;2023-05-15T04:18:34;22.50;52.70
69328;DHT22;56472;52.114;5.492;2023-05-15T04:21:01;22.50;52.70
69328;DHT22;56472;52.114;5.492;2023-05-15T04:23:28;22.50;52.70
69328;DHT22;56472;52.114;5.492;2023-05-15T04:25:54;22.50;52.70
69328;DHT22;56472;52.114;5.492;2023-05-15T04:28:22;22.50;52.70
69328;DHT22;56472;52.114;5.492;2023-05-15T04:30:49;22.50;52.70
69328;DHT22;56472;52.114;5.492;2023-05-15T04:33:16;22.40;52.60
69328;DHT22;56472;52.114;5.492;2023-05-15T04:35:43;22.40;52.70
69328;DHT22;56472;52.114;5.492;2023-05-15T04:38:10;22.40;52.60
69328;DHT22;56472;52.114;5.492;2023-05-15T04:40:37;22.40;52.50
69328;DHT22;56472;52.114;5.492;2023-05-15T04:43:04;22.50;52.60
69328;DHT22;56472;52.114;5.492;2023-05-15T04:45:31;22.40;52.50
69328;DHT22;56472;52.114;5.492;2023-05-15T04:47:58;22.40;52.50
69328;DHT22;56472;52.114;5.492;2023-05-15T04:50:25;22.40;52.50
69328;DHT22;56472;52.114;5.492;2023-05-15T04:52:52;22.50;52.60
69328;DHT22;56472;52.114;5.492;2023-05-15T04:55:19;22.40;52.50
69328;DHT22;56472;52.114;5.492;2023-05-15T04:57:46;22.40;52.40
69328;DHT22;56472;52.114;5.492;2023-05-15T05:00:14;22.50;52.50
69328;DHT22;56472;52.114;5.492;2023-05-15T05:02:41;22.40;52.40
69328;DHT22;56472;52.114;5.492;2023-05-15T05:05:11;22.40;52.40
69328;DHT22;56472;52.114;5.492;2023-05-15T05:07:40;22.50;52.30
69328;DHT22;56472;52.114;5.492;2023-05-15T05:10:08;22.50;52.30
69328;DHT22;56472;52.114;5.492;2023-05-15T05:12:35;22.50;52.20
69328;DHT22;56472;52.114;5.492;2023-05-15T05:15:02;22.50;52.30
69328;DHT22;56472;52.114;5.492;2023-05-15T05:17:29;22.50;52.20
69328;DHT22;56472;52.114;5.492;2023-05-15T05:19:57;22.50;52.20
69328;DHT22;56472;52.114;5.492;2023-05-15T05:22:24;22.50;52.20
69328;DHT22;56472;52.114;5.492;2023-05-15T05:24:51;22.50;52.20
69328;DHT22;56472;52.114;5.492;2023-05-15T05:27:18;22.50;52.10
69328;DHT22;56472;52.114;5.492;2023-05-15T05:29:44;22.50;52.00
69328;DHT22;56472;52.114;5.492;2023-05-15T05:32:11;22.50;52.00
69328;DHT22;56472;52.114;5.492;2023-05-15T05:34:38;22.50;52.00
69328;DHT22;56472;52.114;5.492;2023-05-15T05:37:05;22.50;51.90
69328;DHT22;56472;52.114;5.492;2023-05-15T05:39:32;22.50;51.80
69328;DHT22;56472;52.114;5.492;2023-05-15T05:41:59;22.50;51.80
69328;DHT22;56472;52.114;5.492;2023-05-15T05:44:26;22.50;51.70
69328;DHT22;56472;52.114;5.492;2023-05-15T05:46:53;22.60;51.70
69328;DHT22;56472;52.114;5.492;2023-05-15T05:49:20;22.50;51.60
69328;DHT22;56472;52.114;5.492;2023-05-15T05:51:46;22.60;51.60
69328;DHT22;56472;52.114;5.492;2023-05-15T05:54:13;22.60;51.50
69328;DHT22;56472;52.114;5.492;2023-05-15T05:56:43;22.60;51.50
69328;DHT22;56472;52.114;5.492;2023-05-15T05:59:10;22.60;51.30
69328;DHT22;56472;52.114;5.492;2023-05-15T06:01:37;22.60;51.30
69328;DHT22;56472;52.114;5.492;2023-05-15T06:04:04;22.60;51.20
69328;DHT22;56472;52.114;5.492;2023-05-15T06:06:31;22.60;51.00
69328;DHT22;56472;52.114;5.492;2023-05-15T06:08:58;22.60;51.00
69328;DHT22;56472;52.114;5.492;2023-05-15T06:11:25;22.60;50.90
69328;DHT22;56472;52.114;5.492;2023-05-15T06:13:52;22.70;51.00
69328;DHT22;56472;52.114;5.492;2023-05-15T06:16:20;22.70;50.90
69328;DHT22;56472;52.114;5.492;2023-05-15T06:18:47;22.70;50.90
69328;DHT22;56472;52.114;5.492;2023-05-15T06:21:14;22.70;50.90
69328;DHT22;56472;52.114;5.492;2023-05-15T06:23:41;22.70;50.90
69328;DHT22;56472;52.114;5.492;2023-05-15T06:26:07;22.70;50.90
69328;DHT22;56472;52.114;5.492;2023-05-15T06:28:34;22.80;51.00
69328;DHT22;56472;52.114;5.492;2023-05-15T06:31:01;22.70;50.80
69328;DHT22;56472;52.114;5.492;2023-05-15T06:33:28;22.70;50.80
69328;DHT22;56472;52.114;5.492;2023-05-15T06:35:55;22.70;50.80
69328;DHT22;56472;52.114;5.492;2023-05-15T06:38:22;22.80;50.90
69328;DHT22;56472;52.114;5.492;2023-05-15T06:40:49;22.80;50.80
69328;DHT22;56472;52.114;5.492;2023-05-15T06:43:16;22.80;50.90
69328;DHT22;56472;52.114;5.492;2023-05-15T06:45:42;22.90;50.90
69328;DHT22;56472;52.114;5.492;2023-05-15T06:48:09;22.90;50.90
69328;DHT22;56472;52.114;5.492;2023-05-15T06:50:36;22.90;50.90
69328;DHT22;56472;52.114;5.492;2023-05-15T06:53:03;22.90;50.90
69328;DHT22;56472;52.114;5.492;2023-05-15T06:55:30;22.90;50.90
69328;DHT22;56472;52.114;5.492;2023-05-15T06:57:59;23.00;50.90
69328;DHT22;56472;52.114;5.492;2023-05-15T07:00:26;23.00;50.90
69328;DHT22;56472;52.114;5.492;2023-05-15T07:02:53;23.00;50.90
69328;DHT22;56472;52.114;5.492;2023-05-15T07:05:20;23.00;51.10
69328;DHT22;56472;52.114;5.492;2023-05-15T07:07:47;23.00;51.30
69328;DHT22;56472;52.114;5.492;2023-05-15T07:10:14;23.00;51.40
69328;DHT22;56472;52.114;5.492;2023-05-15T07:12:41;23.10;51.40
69328;DHT22;56472;52.114;5.492;2023-05-15T07:15:08;23.10;51.60
69328;DHT22;56472;52.114;5.492;2023-05-15T07:17:35;23.10;51.80
69328;DHT22;56472;52.114;5.492;2023-05-15T07:20:02;23.10;51.80
69328;DHT22;56472;52.114;5.492;2023-05-15T07:22:31;23.10;51.80
69328;DHT22;56472;52.114;5.492;2023-05-15T07:25:07;23.20;51.80
69328;DHT22;56472;52.114;5.492;2023-05-15T07:27:34;23.20;51.70
69328;DHT22;56472;52.114;5.492;2023-05-15T07:30:02;23.20;51.70
69328;DHT22;56472;52.114;5.492;2023-05-15T07:32:29;23.20;51.60
69328;DHT22;56472;52.114;5.492;2023-05-15T07:34:56;23.30;51.60
69328;DHT22;56472;52.114;5.492;2023-05-15T07:37:23;23.30;51.60
69328;DHT22;56472;52.114;5.492;2023-05-15T07:39:51;23.40;51.60
69328;DHT22;56472;52.114;5.492;2023-05-15T07:42:18;23.30;51.60
69328;DHT22;56472;52.114;5.492;2023-05-15T07:44:45;23.40;51.80
69328;DHT22;56472;52.114;5.492;2023-05-15T07:47:15;23.40;51.90
69328;DHT22;56472;52.114;5.492;2023-05-15T07:49:42;23.50;51.90
69328;DHT22;56472;52.114;5.492;2023-05-15T07:52:09;23.50;51.90
69328;DHT22;56472;52.114;5.492;2023-05-15T07:54:36;23.50;51.80
69328;DHT22;56472;52.114;5.492;2023-05-15T07:57:05;23.50;51.60
69328;DHT22;56472;52.114;5.492;2023-05-15T07:59:31;23.50;51.50
69328;DHT22;56472;52.114;5.492;2023-05-15T08:01:58;23.60;51.50
69328;DHT22;56472;52.114;5.492;2023-05-15T08:04:25;23.60;51.30
69328;DHT22;56472;52.114;5.492;2023-05-15T08:06:52;23.60;51.20
69328;DHT22;56472;52.114;5.492;2023-05-15T08:09:19;23.60;51.10
69328;DHT22;56472;52.114;5.492;2023-05-15T08:11:46;23.60;51.10
69328;DHT22;56472;52.114;5.492;2023-05-15T08:14:13;23.60;51.10
69328;DHT22;56472;52.114;5.492;2023-05-15T08:16:40;23.60;51.00
69328;DHT22;56472;52.114;5.492;2023-05-15T08:19:07;23.60;51.00
69328;DHT22;56472;52.114;5.492;2023-05-15T08:21:36;23.60;50.90
69328;DHT22;56472;52.114;5.492;2023-05-15T08:24:03;23.70;51.90
69328;DHT22;56472;52.114;5.492;2023-05-15T08:26:30;23.70;50.90
69328;DHT22;56472;52.114;5.492;2023-05-15T08:28:57;23.70;50.90
69328;DHT22;56472;52.114;5.492;2023-05-15T08:31:23;23.70;50.90
69328;DHT22;56472;52.114;5.492;2023-05-15T08:33:50;23.80;50.90
69328;DHT22;56472;52.114;5.492;2023-05-15T08:36:17;23.80;50.90
69328;DHT22;56472;52.114;5.492;2023-05-15T08:38:45;23.80;50.80
69328;DHT22;56472;52.114;5.492;2023-05-15T08:41:24;23.90;50.70
69328;DHT22;56472;52.114;5.492;2023-05-15T08:44:08;23.90;50.60
69328;DHT22;56472;52.114;5.492;2023-05-15T08:46:35;23.90;50.70
69328;DHT22;56472;52.114;5.492;2023-05-15T08:51:52;24.00;50.50
69328;DHT22;56472;52.114;5.492;2023-05-15T08:54:19;24.00;50.60
69328;DHT22;56472;52.114;5.492;2023-05-15T08:56:46;24.00;50.70
69328;DHT22;56472;52.114;5.492;2023-05-15T08:59:13;24.00;50.70
69328;DHT22;56472;52.114;5.492;2023-05-15T09:01:40;24.00;50.60
69328;DHT22;56472;52.114;5.492;2023-05-15T09:04:08;24.00;50.40
69328;DHT22;56472;52.114;5.492;2023-05-15T09:06:35;24.10;50.30
69328;DHT22;56472;52.114;5.492;2023-05-15T09:09:03;24.10;50.20
69328;DHT22;56472;52.114;5.492;2023-05-15T09:11:32;24.10;50.20
69328;DHT22;56472;52.114;5.492;2023-05-15T09:14:00;24.10;50.20
69328;DHT22;56472;52.114;5.492;2023-05-15T09:16:27;24.00;49.90
69328;DHT22;56472;52.114;5.492;2023-05-15T09:18:54;24.10;49.80
69328;DHT22;56472;52.114;5.492;2023-05-15T09:21:26;24.00;49.70
69328;DHT22;56472;52.114;5.492;2023-05-15T09:23:54;24.10;49.80
69328;DHT22;56472;52.114;5.492;2023-05-15T09:26:22;24.10;49.80
69328;DHT22;56472;52.114;5.492;2023-05-15T09:28:49;24.10;49.70
69328;DHT22;56472;52.114;5.492;2023-05-15T09:31:18;24.10;49.70
69328;DHT22;56472;52.114;5.492;2023-05-15T09:33:58;24.10;49.70
69328;DHT22;56472;52.114;5.492;2023-05-15T09:36:26;24.10;49.60
69328;DHT22;56472;52.114;5.492;2023-05-15T09:38:58;24.10;49.60
69328;DHT22;56472;52.114;5.492;2023-05-15T09:41:26;24.10;49.60
69328;DHT22;56472;52.114;5.492;2023-05-15T09:43:54;24.10;49.50
69328;DHT22;56472;52.114;5.492;2023-05-15T09:46:22;24.10;49.60
69328;DHT22;56472;52.114;5.492;2023-05-15T09:48:54;24.10;49.60
69328;DHT22;56472;52.114;5.492;2023-05-15T09:51:21;24.10;49.50
69328;DHT22;56472;52.114;5.492;2023-05-15T09:53:52;24.10;49.60
69328;DHT22;56472;52.114;5.492;2023-05-15T09:56:19;24.10;49.50
69328;DHT22;56472;52.114;5.492;2023-05-15T09:58:55;24.10;49.50
69328;DHT22;56472;52.114;5.492;2023-05-15T10:01:22;24.10;49.50
69328;DHT22;56472;52.114;5.492;2023-05-15T10:06:24;24.20;49.50
69328;DHT22;56472;52.114;5.492;2023-05-15T10:08:55;24.20;49.60
69328;DHT22;56472;52.114;5.492;2023-05-15T10:11:23;24.20;49.70
69328;DHT22;56472;52.114;5.492;2023-05-15T10:13:50;24.20;49.80
69328;DHT22;56472;52.114;5.492;2023-05-15T10:16:19;24.20;50.00
69328;DHT22;56472;52.114;5.492;2023-05-15T10:18:47;24.20;50.30
69328;DHT22;56472;52.114;5.492;2023-05-15T10:21:19;24.20;50.50
69328;DHT22;56472;52.114;5.492;2023-05-15T10:23:46;24.20;50.60
69328;DHT22;56472;52.114;5.492;2023-05-15T10:26:58;24.20;50.60
69328;DHT22;56472;52.114;5.492;2023-05-15T10:29:13;24.20;50.60
69328;DHT22;56472;52.114;5.492;2023-05-15T10:31:40;24.20;50.70
69328;DHT22;56472;52.114;5.492;2023-05-15T10:34:09;24.20;50.80
69328;DHT22;56472;52.114;5.492;2023-05-15T10:36:37;24.20;51.10
69328;DHT22;56472;52.114;5.492;2023-05-15T10:39:05;24.20;51.20
69328;DHT22;56472;52.114;5.492;2023-05-15T10:41:35;24.20;51.30
69328;DHT22;56472;52.114;5.492;2023-05-15T10:44:03;24.20;51.40
69328;DHT22;56472;52.114;5.492;2023-05-15T10:46:32;24.20;51.40
69328;DHT22;56472;52.114;5.492;2023-05-15T10:49:00;24.20;51.70
69328;DHT22;56472;52.114;5.492;2023-05-15T10:51:29;24.20;51.80
69328;DHT22;56472;52.114;5.492;2023-05-15T10:53:59;24.20;52.00
69328;DHT22;56472;52.114;5.492;2023-05-15T10:56:30;24.20;52.30
69328;DHT22;56472;52.114;5.492;2023-05-15T10:58:57;24.10;52.50
69328;DHT22;56472;52.114;5.492;2023-05-15T11:01:28;24.10;52.80
69328;DHT22;56472;52.114;5.492;2023-05-15T11:04:11;24.10;52.90
69328;DHT22;56472;52.114;5.492;2023-05-15T11:06:41;24.20;53.00
69328;DHT22;56472;52.114;5.492;2023-05-15T11:11:54;24.10;53.00
69328;DHT22;56472;52.114;5.492;2023-05-15T11:14:24;24.10;53.10
69328;DHT22;56472;52.114;5.492;2023-05-15T11:21:59;24.10;53.40
69328;DHT22;56472;52.114;5.492;2023-05-15T11:27:01;24.10;53.50
69328;DHT22;56472;52.114;5.492;2023-05-15T11:29:29;24.10;53.60
69328;DHT22;56472;52.114;5.492;2023-05-15T11:31:57;24.10;53.50
69328;DHT22;56472;52.114;5.492;2023-05-15T11:34:34;24.10;53.40
69328;DHT22;56472;52.114;5.492;2023-05-15T11:37:01;24.10;53.40
69328;DHT22;56472;52.114;5.492;2023-05-15T11:39:28;24.10;53.20
69328;DHT22;56472;52.114;5.492;2023-05-15T11:41:55;24.10;53.10
69328;DHT22;56472;52.114;5.492;2023-05-15T11:44:24;24.10;53.10
69328;DHT22;56472;52.114;5.492;2023-05-15T11:46:52;24.00;52.90
69328;DHT22;56472;52.114;5.492;2023-05-15T11:49:19;24.10;52.90
69328;DHT22;56472;52.114;5.492;2023-05-15T11:51:49;24.00;52.80
69328;DHT22;56472;52.114;5.492;2023-05-15T11:54:17;24.00;52.70
69328;DHT22;56472;52.114;5.492;2023-05-15T11:56:44;24.00;52.60
69328;DHT22;56472;52.114;5.492;2023-05-15T11:59:14;24.00;52.50
69328;DHT22;56472;52.114;5.492;2023-05-15T12:01:42;24.00;52.60
69328;DHT22;56472;52.114;5.492;2023-05-15T12:04:13;24.00;52.50
69328;DHT22;56472;52.114;5.492;2023-05-15T12:06:41;24.00;52.30
69328;DHT22;56472;52.114;5.492;2023-05-15T12:09:14;24.00;52.10
69328;DHT22;56472;52.114;5.492;2023-05-15T12:11:54;24.00;52.00
69328;DHT22;56472;52.114;5.492;2023-05-15T12:14:28;24.00;51.90
69328;DHT22;56472;52.114;5.492;2023-05-15T12:17:02;24.00;51.80
69328;DHT22;56472;52.114;5.492;2023-05-15T12:19:30;24.00;51.70
69328;DHT22;56472;52.114;5.492;2023-05-15T12:21:57;24.00;51.70
69328;DHT22;56472;52.114;5.492;2023-05-15T12:24:25;24.00;51.70
69328;DHT22;56472;52.114;5.492;2023-05-15T12:26:52;24.00;51.70
69328;DHT22;56472;52.114;5.492;2023-05-15T12:29:23;24.00;51.50
69328;DHT22;56472;52.114;5.492;2023-05-15T12:31:51;24.00;51.40
69328;DHT22;56472;52.114;5.492;2023-05-15T12:34:20;24.00;51.40
69328;DHT22;56472;52.114;5.492;2023-05-15T12:36:47;24.10;51.40
69328;DHT22;56472;52.114;5.492;2023-05-15T12:39:15;24.10;51.30
69328;DHT22;56472;52.114;5.492;2023-05-15T12:41:43;24.10;51.10
69328;DHT22;56472;52.114;5.492;2023-05-15T12:44:16;24.10;51.00
69328;DHT22;56472;52.114;5.492;2023-05-15T12:46:44;24.20;51.00
69328;DHT22;56472;52.114;5.492;2023-05-15T12:49:11;24.10;50.80
69328;DHT22;56472;52.114;5.492;2023-05-15T12:51:42;24.20;50.80
69328;DHT22;56472;52.114;5.492;2023-05-15T12:54:16;24.20;50.60
69328;DHT22;56472;52.114;5.492;2023-05-15T12:56:44;24.20;50.40
69328;DHT22;56472;52.114;5.492;2023-05-15T12:59:11;24.30;50.40
69328;DHT22;56472;52.114;5.492;2023-05-15T13:01:39;24.30;50.40
69328;DHT22;56472;52.114;5.492;2023-05-15T13:04:08;24.30;50.30
69328;DHT22;56472;52.114;5.492;2023-05-15T13:06:38;24.30;50.20
69328;DHT22;56472;52.114;5.492;2023-05-15T13:09:12;24.40;50.10
69328;DHT22;56472;52.114;5.492;2023-05-15T13:11:43;24.40;50.00
69328;DHT22;56472;52.114;5.492;2023-05-15T13:14:10;24.40;50.00
69328;DHT22;56472;52.114;5.492;2023-05-15T13:16:44;24.40;50.00
69328;DHT22;56472;52.114;5.492;2023-05-15T13:19:12;24.40;49.90
69328;DHT22;56472;52.114;5.492;2023-05-15T13:21:39;24.40;50.80
69328;DHT22;56472;52.114;5.492;2023-05-15T13:24:06;24.40;49.80
69328;DHT22;56472;52.114;5.492;2023-05-15T13:26:36;24.40;49.70
69328;DHT22;56472;52.114;5.492;2023-05-15T13:29:03;24.40;49.80
69328;DHT22;56472;52.114;5.492;2023-05-15T13:31:30;24.40;49.80
69328;DHT22;56472;52.114;5.492;2023-05-15T13:33:57;24.40;49.80
69328;DHT22;56472;52.114;5.492;2023-05-15T13:36:24;24.50;49.90
69328;DHT22;56472;52.114;5.492;2023-05-15T13:38:51;24.50;49.80
69328;DHT22;56472;52.114;5.492;2023-05-15T13:41:18;24.50;49.70
69328;DHT22;56472;52.114;5.492;2023-05-15T13:43:45;24.50;49.50
69328;DHT22;56472;52.114;5.492;2023-05-15T13:46:14;24.50;49.40
69328;DHT22;56472;52.114;5.492;2023-05-15T13:48:42;24.50;49.40
69328;DHT22;56472;52.114;5.492;2023-05-15T13:51:09;24.50;49.30
69328;DHT22;56472;52.114;5.492;2023-05-15T13:53:36;24.50;49.40
69328;DHT22;56472;52.114;5.492;2023-05-15T13:56:02;24.40;49.40
69328;DHT22;56472;52.114;5.492;2023-05-15T13:58:29;24.40;49.50
69328;DHT22;56472;52.114;5.492;2023-05-15T14:00:56;24.40;49.50
69328;DHT22;56472;52.114;5.492;2023-05-15T14:03:23;24.40;49.50
69328;DHT22;56472;52.114;5.492;2023-05-15T14:05:50;24.30;49.50
69328;DHT22;56472;52.114;5.492;2023-05-15T14:08:18;24.30;49.60
69328;DHT22;56472;52.114;5.492;2023-05-15T14:10:45;24.30;49.60
69328;DHT22;56472;52.114;5.492;2023-05-15T14:13:12;24.30;49.60
69328;DHT22;56472;52.114;5.492;2023-05-15T14:15:38;24.20;49.60
69328;DHT22;56472;52.114;5.492;2023-05-15T14:18:05;24.20;49.60
69328;DHT22;56472;52.114;5.492;2023-05-15T14:20:33;24.20;49.60
69328;DHT22;56472;52.114;5.492;2023-05-15T14:22:59;24.20;49.50
69328;DHT22;56472;52.114;5.492;2023-05-15T14:25:26;24.20;49.60
69328;DHT22;56472;52.114;5.492;2023-05-15T14:27:53;24.20;49.60
69328;DHT22;56472;52.114;5.492;2023-05-15T14:30:20;24.20;49.50
69328;DHT22;56472;52.114;5.492;2023-05-15T14:32:48;24.20;49.40
69328;DHT22;56472;52.114;5.492;2023-05-15T14:35:15;24.20;49.40
69328;DHT22;56472;52.114;5.492;2023-05-15T14:37:42;24.20;49.40
69328;DHT22;56472;52.114;5.492;2023-05-15T14:40:09;24.20;49.30
69328;DHT22;56472;52.114;5.492;2023-05-15T14:42:36;24.30;49.20
69328;DHT22;56472;52.114;5.492;2023-05-15T14:45:03;24.30;49.30
69328;DHT22;56472;52.114;5.492;2023-05-15T14:47:30;24.30;49.20
69328;DHT22;56472;52.114;5.492;2023-05-15T14:49:58;24.30;49.10
69328;DHT22;56472;52.114;5.492;2023-05-15T14:52:24;24.30;49.00
69328;DHT22;56472;52.114;5.492;2023-05-15T14:54:51;24.30;48.90
69328;DHT22;56472;52.114;5.492;2023-05-15T14:57:34;24.30;48.90
69328;DHT22;56472;52.114;5.492;2023-05-15T15:00:01;24.30;48.90
69328;DHT22;56472;52.114;5.492;2023-05-15T15:02:27;24.30;48.90
69328;DHT22;56472;52.114;5.492;2023-05-15T15:04:55;24.30;48.90
69328;DHT22;56472;52.114;5.492;2023-05-15T15:07:28;24.30;48.90
69328;DHT22;56472;52.114;5.492;2023-05-15T15:09:56;24.20;48.80
69328;DHT22;56472;52.114;5.492;2023-05-15T15:12:22;24.20;48.80
69328;DHT22;56472;52.114;5.492;2023-05-15T15:14:49;24.20;48.80
69328;DHT22;56472;52.114;5.492;2023-05-15T15:17:16;24.10;48.80
69328;DHT22;56472;52.114;5.492;2023-05-15T15:19:44;24.20;48.80
69328;DHT22;56472;52.114;5.492;2023-05-15T15:22:10;24.10;48.80
69328;DHT22;56472;52.114;5.492;2023-05-15T15:24:37;24.10;49.00
69328;DHT22;56472;52.114;5.492;2023-05-15T15:27:04;24.10;49.10
69328;DHT22;56472;52.114;5.492;2023-05-15T15:29:32;24.10;49.10
69328;DHT22;56472;52.114;5.492;2023-05-15T15:31:59;24.10;49.20
69328;DHT22;56472;52.114;5.492;2023-05-15T15:34:26;24.10;49.30
69328;DHT22;56472;52.114;5.492;2023-05-15T15:36:53;24.10;49.30
69328;DHT22;56472;52.114;5.492;2023-05-15T15:39:20;24.10;49.30
69328;DHT22;56472;52.114;5.492;2023-05-15T15:41:46;24.00;49.10
69328;DHT22;56472;52.114;5.492;2023-05-15T15:44:13;24.00;49.20
69328;DHT22;56472;52.114;5.492;2023-05-15T15:46:40;24.00;49.20
69328;DHT22;56472;52.114;5.492;2023-05-15T15:49:07;24.00;49.20
69328;DHT22;56472;52.114;5.492;2023-05-15T15:51:34;24.00;49.30
69328;DHT22;56472;52.114;5.492;2023-05-15T15:54:01;24.00;49.30
69328;DHT22;56472;52.114;5.492;2023-05-15T15:56:28;23.90;49.20
69328;DHT22;56472;52.114;5.492;2023-05-15T15:58:55;23.90;49.20
69328;DHT22;56472;52.114;5.492;2023-05-15T16:01:22;23.90;49.20
69328;DHT22;56472;52.114;5.492;2023-05-15T16:03:49;23.90;49.20
69328;DHT22;56472;52.114;5.492;2023-05-15T16:06:16;23.90;49.20